createdAt,value
2022-10-10T00:05:17.192Z,1.08
2022-10-10T00:15:19.225Z,0.90
2022-10-10T00:25:24.536Z,1.00
2022-10-10T00:35:32.099Z,1.10
2022-10-10T00:45:45.333Z,1.00
2022-10-10T00:55:47.510Z,0.90
2022-10-10T01:05:51.734Z,1.10
2022-10-10T01:16:05.511Z,1.45
2022-10-10T01:26:33.312Z,1.17
2022-10-10T01:36:52.009Z,1.17
2022-10-10T01:46:56.355Z,0.80
2022-10-10T01:57:54.386Z,1.00
2022-10-10T02:08:03.046Z,0.98
2022-10-10T02:18:05.272Z,1.42
2022-10-10T02:28:09.755Z,1.08
2022-10-10T02:38:12.388Z,0.98
2022-10-10T02:48:13.882Z,1.33
2022-10-10T02:58:15.296Z,1.50
2022-10-10T03:08:17.015Z,1.30
2022-10-10T03:18:18.521Z,1.70
2022-10-10T03:28:19.965Z,1.73
2022-10-10T03:38:21.371Z,1.55
2022-10-10T03:48:22.861Z,1.45
2022-10-10T03:58:24.236Z,1.52
2022-10-10T04:08:25.637Z,2.13
2022-10-10T04:18:27.046Z,1.50
2022-10-10T04:28:28.473Z,1.45
2022-10-10T04:38:29.902Z,1.45
2022-10-10T04:48:31.458Z,1.50
2022-10-10T04:58:32.827Z,1.73
2022-10-10T05:08:34.624Z,1.45
2022-10-10T05:18:38.916Z,1.38
2022-10-10T05:28:40.311Z,1.58
2022-10-10T05:38:41.859Z,1.55
2022-10-10T05:48:43.429Z,1.73
2022-10-10T05:58:44.870Z,1.80
2022-10-10T06:08:46.399Z,2.00
2022-10-10T06:18:47.816Z,2.13
2022-10-10T06:28:50.802Z,1.88
2022-10-10T06:38:52.195Z,2.08
2022-10-10T06:48:53.615Z,1.25
2022-10-10T06:58:55.169Z,1.40
2022-10-10T07:08:58.086Z,1.63
2022-10-10T07:18:59.453Z,1.70
2022-10-10T07:29:00.950Z,1.70
2022-10-10T07:39:02.438Z,1.60
2022-10-10T07:49:04.153Z,1.30
2022-10-10T07:59:05.604Z,1.38
2022-10-10T08:09:07.057Z,1.77
2022-10-10T08:19:08.497Z,2.05
2022-10-10T08:29:09.997Z,1.75
2022-10-10T08:39:11.517Z,1.80
2022-10-10T08:49:27.921Z,1.60
2022-10-10T08:59:36.572Z,1.70
2022-10-10T09:10:09.801Z,1.58
2022-10-10T09:20:35.589Z,1.73
2022-10-10T09:30:37.851Z,2.45
2022-10-10T09:40:50.573Z,2.10
2022-10-10T09:50:51.989Z,1.90
2022-10-10T10:00:56.410Z,1.52
2022-10-10T10:10:58.687Z,1.58
2022-10-10T10:21:13.665Z,1.95
2022-10-10T10:31:24.742Z,2.08
2022-10-10T10:41:41.225Z,1.45
2022-10-10T10:52:10.380Z,2.17
2022-10-10T11:02:54.406Z,1.77
2022-10-10T11:12:59.822Z,1.77
2022-10-10T11:23:10.247Z,1.50
2022-10-10T11:33:15.529Z,1.70
2022-10-10T11:43:22.758Z,1.52
2022-10-10T11:53:39.105Z,1.95
2022-10-10T12:03:40.492Z,1.95
2022-10-10T12:13:44.066Z,1.90
2022-10-10T12:24:10.014Z,2.45
2022-10-10T12:34:16.608Z,1.80
2022-10-10T12:44:21.315Z,2.25
2022-10-10T12:54:24.948Z,1.70
2022-10-10T13:04:28.209Z,1.85
2022-10-10T13:14:44.649Z,1.40
2022-10-10T13:24:46.062Z,1.80
2022-10-10T13:34:52.348Z,2.58
2022-10-10T13:44:53.885Z,1.85
2022-10-10T13:54:55.312Z,1.67
2022-10-10T14:04:56.811Z,2.38
2022-10-10T14:14:58.901Z,2.50
2022-10-10T14:25:00.269Z,1.85
2022-10-10T14:35:01.634Z,1.70
2022-10-10T14:45:03.116Z,2.28
2022-10-10T14:55:04.837Z,1.23
2022-10-10T15:05:06.430Z,2.53
2022-10-10T15:15:08.552Z,2.25
2022-10-10T15:25:09.970Z,2.22
2022-10-10T15:35:13.714Z,2.78
2022-10-10T15:45:26.576Z,2.30
2022-10-10T15:55:49.750Z,2.53
2022-10-10T16:05:51.212Z,2.63
2022-10-10T16:16:03.082Z,2.80
2022-10-10T16:26:06.146Z,2.28
2022-10-10T16:36:11.639Z,2.75
2022-10-10T16:46:15.707Z,1.98
2022-10-10T16:56:18.677Z,2.03
2022-10-10T17:06:21.506Z,2.45
2022-10-10T17:26:45.859Z,3.00
2022-10-10T17:36:47.776Z,2.28
2022-10-10T17:46:50.386Z,2.15
2022-10-10T17:56:51.781Z,2.25
2022-10-10T18:06:53.214Z,2.55
2022-10-10T18:16:54.587Z,2.30
2022-10-10T18:26:56.156Z,4.68
2022-10-10T18:36:57.655Z,5.60
2022-10-10T18:46:59.220Z,6.22
2022-10-10T18:57:00.756Z,6.22
2022-10-10T19:07:02.381Z,2.88
2022-10-10T19:17:03.929Z,2.65
2022-10-10T19:27:05.400Z,1.30
2022-10-10T19:37:06.789Z,1.75
2022-10-10T19:47:08.285Z,1.75
2022-10-10T19:57:12.560Z,1.60
2022-10-10T20:07:14.092Z,1.17
2022-10-10T20:17:15.538Z,1.13
2022-10-10T20:27:17.043Z,1.35
2022-10-10T20:37:18.465Z,1.98
2022-10-10T20:47:19.926Z,1.27
2022-10-10T20:57:23.955Z,1.15
2022-10-10T21:07:25.323Z,2.08
2022-10-10T21:17:26.763Z,1.55
2022-10-10T21:27:28.139Z,1.77
2022-10-10T21:37:30.379Z,1.88
2022-10-10T21:47:31.762Z,2.05
2022-10-10T21:57:33.189Z,1.85
2022-10-10T22:07:34.558Z,1.38
2022-10-10T22:17:36.092Z,1.50
2022-10-10T22:27:37.469Z,1.88
2022-10-10T22:37:41.833Z,1.55
2022-10-10T22:47:47.742Z,2.38
2022-10-10T22:57:49.252Z,1.90
2022-10-10T23:07:50.646Z,1.58
2022-10-10T23:17:52.026Z,2.05
2022-10-10T23:27:53.720Z,1.67
2022-10-10T23:37:56.378Z,2.83
2022-10-10T23:48:03.618Z,2.20
2022-10-10T23:58:05.219Z,1.77
